Aérodrome :
LOGIN :

S'inscrire | Disclaimer

   EN    FR    IT 

 










Légende :    VFR   VFR Marginal   IFR   IFR Intensif   IFR Très Intensif
Visi : 
Plafond : 
>= 8 km
>= 3000ft
5 à 8 km
1000 à 3000 ft
1500m à 5 km
500 à 1000 ft
800 à 1500m
200 à 500 ft
< 800m
< 200 ft
Symboles :   Orages  Brouillard  Fortes neiges  Fortes précipitations  Vent > 20 kt
SIGMETs :   Divers  Orages  Givrage  Turbulence  Onde Orograph.  Cendres Volcan.







- Altitude de l'aérodrome : 33 ft
- Code IATA : MHZ


EGUN - RAF Mildenhall

DERNIER METAR :
  • 240003Z AUTO 24003KT 9999 FEW023 SCT035 BKN060 14/14 A2982 RMK AO2 CIG 031 RWY29 SLP101

METARs EXPIRÉS :
  • 232354Z AUTO 24004KT 9999 SCT024 SCT037 BKN047 BKN060 BKN070 14/14 A2982 RMK AO2 RAE2258DZB2258E02RAB14E29 SLP101
  • 232339Z AUTO 24005KT 9999 FEW028 SCT045 BKN060 14/14 A2982 RMK AO2 RAE2258DZB2258E02RAB14E29 SLP101
  • 232334Z AUTO 22006KT 9999 FEW028 SCT035 BKN044 BKN055 14/14 A2982 RMK AO2 RAE2258DZB2258E02RAB14E29 CIG 036 RWY29 SLP101
  • 232324Z AUTO 24004KT 9999 -RA SCT029 BKN035 14/14 A2983 RMK AO2 RAE2258DZB2258E02RAB14 SLP105
  • 232314Z AUTO 23004KT 9999 -RA SCT031 SCT070 14/14 A2983 RMK AO2 RAE2258DZB2258E02RAB14 SLP105
  • 232302Z AUTO 27003KT 9999 FEW028 SCT060 BKN075 14/14 A2984 RMK AO2 RAE2258DZB2258E02 SLP108
  • 232234Z AUTO 28004KT 9999 -RA FEW022 14/14 A2983 RMK AO2 SLP105
  • 232225Z AUTO 30004KT 9999 CLR 14/14 A2984 RMK AO2 SLP108
  • 232158Z AUTO 31006KT 9999 -RA BKN070 15/15 A2984 RMK AO2 RAB45 SLP108 P0000 T01470147
  • 232145Z AUTO 30004KT 9999 -RA OVC070 15/15 A2984 RMK AO2 RAB45 SLP108

TAF TAF EGUN
Valide du 23 à 20h jusqu'au 25 à 02h UTC


232007Z 2320/2502 30006KT 9999 BKN060 QNH2980INS
BECMG 2404/2405 30009KT 9999 BKN010 QNH2981INS
TEMPO 2405/2409 BKN005
BECMG 2408/2409 32012G25KT 8000 -SHRA BKN010 610809 QNH2981INS
BECMG 2417/2418 33015G20KT 8000 -SHRA BKN007 QNH2980INS
BECMG 2421/2422 33012G20KT 9999 NSW BKN005 QNH2979INS TX19/2414Z TN13/2402Z
Pas de NOTAMs connus pour ce terrain.



MET'MAP, la Météo Aéronautique d'un coup d'oeil ! - Copyright ORBIFLY Décembre 2007 - Disclaimer

ORBIFLY MET'MAP TEAM :

Programmation & Développement : Alexandra Zaïnal
Conception & Développement : Baudouin d'Aumeries
Co-Programmation & Développement : Marc-Olivier Méhu
Soutien technique & logistique : Manuel Goepfert

Contact : metmap@orbifly.com




SOURCES & CREDITS :

   NOAA